createdAt,value
2022-10-09T00:01:10.154Z,6.55
2022-10-09T00:03:38.131Z,6.68
2022-10-09T00:06:06.224Z,7.05
2022-10-09T00:08:35.053Z,6.82
2022-10-09T00:11:06.212Z,5.43
2022-10-09T00:13:32.614Z,5.15
2022-10-09T00:16:03.983Z,5.30
2022-10-09T00:18:30.619Z,4.47
2022-10-09T00:20:57.011Z,5.18
2022-10-09T00:23:23.708Z,4.57
2022-10-09T00:25:58.125Z,4.82
2022-10-09T00:28:27.242Z,5.60
2022-10-09T00:30:54.121Z,5.65
2022-10-09T00:33:20.692Z,4.78
2022-10-09T00:35:48.115Z,5.13
2022-10-09T00:38:14.558Z,4.47
2022-10-09T00:40:41.397Z,5.15
2022-10-09T00:43:18.860Z,4.85
2022-10-09T00:45:53.702Z,4.97
2022-10-09T00:48:20.989Z,4.53
2022-10-09T00:50:58.057Z,5.47
2022-10-09T00:53:28.784Z,4.97
2022-10-09T00:55:55.811Z,4.00
2022-10-09T00:58:23.499Z,4.55
2022-10-09T01:00:50.121Z,2.65
2022-10-09T01:03:16.721Z,4.35
2022-10-09T01:06:24.540Z,4.53
2022-10-09T01:09:24.370Z,4.78
2022-10-09T01:12:08.970Z,4.68
2022-10-09T01:14:48.472Z,4.25
2022-10-09T01:17:25.155Z,4.40
2022-10-09T01:20:16.390Z,5.20
2022-10-09T01:23:01.112Z,4.25
2022-10-09T01:25:45.254Z,3.80
2022-10-09T01:28:14.564Z,4.43
2022-10-09T01:30:42.196Z,5.25
2022-10-09T01:33:10.974Z,5.93
2022-10-09T01:35:38.536Z,4.80
2022-10-09T01:38:06.028Z,3.88
2022-10-09T01:40:32.597Z,4.28
2022-10-09T01:42:59.420Z,4.32
2022-10-09T01:45:26.039Z,5.07
2022-10-09T01:47:52.464Z,4.88
2022-10-09T01:50:30.279Z,4.63
2022-10-09T01:53:01.584Z,5.53
2022-10-09T01:55:39.170Z,4.60
2022-10-09T01:58:15.410Z,4.28
2022-10-09T02:00:56.848Z,4.32
2022-10-09T02:03:26.107Z,4.93
2022-10-09T02:05:55.520Z,4.35
2022-10-09T02:08:23.351Z,4.13
2022-10-09T02:10:55.082Z,4.00
2022-10-09T02:13:21.963Z,4.32
2022-10-09T02:15:53.387Z,4.78
2022-10-09T02:18:26.533Z,4.05
2022-10-09T02:20:59.442Z,4.00
2022-10-09T02:23:27.471Z,4.88
2022-10-09T02:25:54.036Z,3.92
2022-10-09T02:28:21.755Z,3.63
2022-10-09T02:30:59.586Z,4.32
2022-10-09T02:33:33.607Z,4.63
2022-10-09T02:36:00.872Z,4.50
2022-10-09T02:38:27.559Z,4.35
2022-10-09T02:40:58.272Z,3.83
2022-10-09T02:43:24.670Z,3.72
2022-10-09T02:45:51.331Z,3.90
2022-10-09T02:48:17.980Z,4.20
2022-10-09T02:50:44.325Z,5.03
2022-10-09T02:53:10.735Z,5.18
2022-10-09T02:55:37.061Z,4.95
2022-10-09T02:58:03.830Z,4.88
2022-10-09T03:00:30.242Z,4.03
2022-10-09T03:02:57.975Z,3.83
2022-10-09T03:05:24.714Z,4.90
2022-10-09T03:07:51.141Z,4.60
2022-10-09T03:10:19.420Z,4.10
2022-10-09T03:12:46.212Z,4.75
2022-10-09T03:15:14.639Z,5.13
2022-10-09T03:17:41.344Z,4.88
2022-10-09T03:20:08.343Z,4.70
2022-10-09T03:22:34.750Z,5.40
2022-10-09T03:25:01.276Z,4.75
2022-10-09T03:27:27.936Z,4.93
2022-10-09T03:29:54.627Z,6.80
2022-10-09T03:35:07.196Z,4.85
2022-10-09T03:37:33.665Z,3.88
2022-10-09T03:40:00.105Z,4.68
2022-10-09T03:42:26.531Z,3.97
2022-10-09T03:44:52.939Z,4.40
2022-10-09T03:47:19.334Z,4.28
2022-10-09T03:49:45.676Z,4.45
2022-10-09T03:52:11.997Z,4.57
2022-10-09T03:54:38.297Z,4.85
2022-10-09T03:57:04.695Z,3.28
2022-10-09T03:59:31.057Z,5.25
2022-10-09T04:01:57.461Z,4.53
2022-10-09T04:04:23.923Z,4.72
2022-10-09T04:06:50.261Z,4.50
2022-10-09T04:09:16.584Z,5.43
2022-10-09T04:11:43.253Z,4.95
2022-10-09T04:14:09.576Z,3.97
2022-10-09T04:16:35.937Z,4.05
2022-10-09T04:19:02.620Z,3.17
2022-10-09T04:21:29.340Z,3.05
2022-10-09T04:23:55.756Z,3.95
2022-10-09T04:26:22.131Z,3.80
2022-10-09T04:28:48.482Z,3.88
2022-10-09T04:31:14.997Z,3.67
2022-10-09T04:33:41.330Z,3.53
2022-10-09T04:36:08.002Z,5.18
2022-10-09T04:38:34.518Z,4.10
2022-10-09T04:41:06.588Z,4.00
2022-10-09T04:43:34.455Z,5.32
2022-10-09T04:46:05.485Z,5.57
2022-10-09T04:48:32.010Z,5.03
2022-10-09T04:50:58.345Z,3.80
2022-10-09T04:53:24.793Z,4.25
2022-10-09T04:55:51.408Z,3.80
2022-10-09T04:58:17.751Z,6.90
2022-10-09T05:00:45.726Z,4.15
2022-10-09T05:03:12.770Z,4.78
2022-10-09T05:05:39.606Z,4.93
2022-10-09T05:08:06.187Z,4.07
2022-10-09T05:10:33.915Z,6.07
2022-10-09T05:13:00.567Z,3.97
2022-10-09T05:15:27.624Z,3.47
2022-10-09T05:17:54.257Z,5.97
2022-10-09T05:20:20.663Z,4.80
2022-10-09T05:22:48.094Z,5.43
2022-10-09T05:25:15.375Z,4.93
2022-10-09T05:27:42.014Z,3.45
2022-10-09T05:30:09.627Z,3.50
2022-10-09T05:32:36.217Z,5.03
2022-10-09T05:35:02.817Z,5.10
2022-10-09T05:37:29.218Z,4.50
2022-10-09T05:39:55.540Z,4.38
2022-10-09T05:42:21.856Z,5.40
2022-10-09T05:44:48.247Z,5.50
2022-10-09T05:47:14.762Z,2.90
2022-10-09T05:49:41.118Z,4.80
2022-10-09T05:52:07.864Z,4.25
2022-10-09T05:54:34.426Z,4.97
2022-10-09T05:57:01.030Z,4.82
2022-10-09T05:59:27.420Z,4.38
2022-10-09T06:01:53.876Z,5.25
2022-10-09T06:04:24.346Z,5.65
2022-10-09T06:06:51.166Z,5.65
2022-10-09T06:09:19.917Z,5.97
2022-10-09T06:11:46.580Z,7.20
2022-10-09T06:14:13.340Z,4.30
2022-10-09T06:16:42.448Z,4.50
2022-10-09T06:19:12.525Z,4.47
2022-10-09T06:21:39.170Z,3.83
2022-10-09T06:24:06.371Z,3.95
2022-10-09T06:26:33.715Z,5.40
2022-10-09T06:29:02.120Z,4.80
2022-10-09T06:31:31.136Z,3.80
2022-10-09T06:34:01.914Z,4.55
2022-10-09T06:36:32.289Z,4.75
2022-10-09T06:39:00.654Z,3.00
2022-10-09T06:41:28.892Z,2.90
2022-10-09T06:43:57.386Z,4.47
2022-10-09T06:46:27.651Z,2.65
2022-10-09T06:48:54.436Z,3.88
2022-10-09T06:51:22.860Z,3.60
2022-10-09T06:53:54.976Z,4.45
2022-10-09T06:56:24.028Z,3.58
2022-10-09T06:58:50.787Z,4.28
2022-10-09T07:01:26.340Z,4.85
2022-10-09T07:04:17.745Z,4.32
2022-10-09T07:06:45.592Z,3.20
2022-10-09T07:09:13.171Z,4.88
2022-10-09T07:11:42.760Z,4.05
2022-10-09T07:14:10.383Z,3.17
2022-10-09T07:16:42.297Z,3.42
2022-10-09T07:19:10.043Z,3.60
2022-10-09T07:21:38.090Z,3.75
2022-10-09T07:24:06.236Z,3.83
2022-10-09T07:26:36.092Z,4.20
2022-10-09T07:29:03.517Z,4.75
2022-10-09T07:31:30.057Z,4.00
2022-10-09T07:33:57.256Z,4.10
2022-10-09T07:36:24.296Z,4.03
2022-10-09T07:38:56.460Z,3.75
2022-10-09T07:41:25.017Z,3.60
2022-10-09T07:43:51.729Z,2.90
2022-10-09T07:46:22.259Z,2.90
2022-10-09T07:48:49.768Z,3.33
2022-10-09T07:51:34.506Z,4.18
2022-10-09T07:54:01.532Z,2.97
2022-10-09T07:56:30.684Z,3.40
2022-10-09T07:58:59.722Z,3.22
2022-10-09T08:01:27.657Z,3.30
2022-10-09T08:03:54.634Z,3.78
2022-10-09T08:06:20.997Z,3.70
2022-10-09T08:08:52.486Z,3.03
2022-10-09T08:11:20.276Z,3.97
2022-10-09T08:13:47.930Z,3.33
2022-10-09T08:16:15.002Z,3.17
2022-10-09T08:18:41.401Z,2.95
2022-10-09T08:21:11.659Z,3.30
2022-10-09T08:23:38.337Z,2.90
2022-10-09T08:26:11.685Z,3.10
2022-10-09T08:28:38.028Z,3.50
2022-10-09T08:31:12.917Z,3.67
2022-10-09T08:33:39.740Z,3.85
2022-10-09T08:36:07.878Z,3.35
2022-10-09T08:38:47.121Z,3.88
2022-10-09T08:41:33.385Z,3.72
2022-10-09T08:44:13.654Z,2.95
2022-10-09T08:46:46.593Z,2.75
2022-10-09T08:49:41.191Z,3.22
2022-10-09T08:52:15.195Z,2.95
2022-10-09T08:54:41.578Z,2.88
2022-10-09T08:57:14.632Z,2.95
2022-10-09T08:59:41.723Z,4.15
2022-10-09T09:02:48.031Z,3.97
2022-10-09T09:05:33.197Z,4.25
2022-10-09T09:08:29.735Z,4.40
2022-10-09T09:11:21.597Z,4.28
2022-10-09T09:14:00.830Z,3.80
2022-10-09T09:16:49.049Z,3.15
2022-10-09T09:19:27.898Z,3.63
2022-10-09T09:21:54.236Z,4.07
2022-10-09T09:24:27.915Z,3.45
2022-10-09T09:26:56.245Z,3.72
2022-10-09T09:29:24.301Z,4.03
2022-10-09T09:31:57.199Z,4.10
2022-10-09T09:34:39.058Z,3.45
2022-10-09T09:37:05.697Z,3.42
2022-10-09T09:40:30.951Z,3.88
2022-10-09T09:42:21.560Z,3.05
2022-10-09T09:44:57.394Z,2.90
2022-10-09T09:47:35.841Z,3.13
2022-10-09T09:50:05.034Z,2.78
2022-10-09T09:52:39.768Z,3.35
2022-10-09T09:55:07.176Z,3.20
2022-10-09T09:57:42.212Z,3.45
2022-10-09T10:00:21.988Z,3.50
2022-10-09T10:02:49.566Z,3.08
2022-10-09T10:05:26.692Z,3.22
2022-10-09T10:07:54.565Z,3.70
2022-10-09T10:10:26.412Z,3.08
2022-10-09T10:12:53.100Z,3.38
2022-10-09T10:15:27.171Z,3.58
2022-10-09T10:18:12.816Z,2.47
2022-10-09T10:20:48.407Z,3.15
2022-10-09T10:26:22.808Z,2.20
2022-10-09T10:28:56.686Z,2.67
2022-10-09T10:31:53.941Z,2.20
2022-10-09T10:34:25.081Z,1.73
2022-10-09T10:37:02.631Z,1.55
2022-10-09T10:39:39.830Z,1.90
2022-10-09T10:42:14.647Z,2.70
2022-10-09T10:44:52.030Z,2.45
2022-10-09T10:47:23.880Z,2.05
2022-10-09T10:49:50.728Z,1.55
2022-10-09T10:52:41.315Z,2.20
2022-10-09T10:55:29.341Z,1.60
2022-10-09T10:58:09.455Z,2.05
2022-10-09T11:00:41.400Z,1.73
2022-10-09T11:03:37.346Z,1.60
2022-10-09T11:06:14.306Z,1.55
2022-10-09T11:08:46.637Z,1.65
2022-10-09T11:12:02.394Z,1.10
2022-10-09T11:14:37.148Z,0.80
2022-10-09T11:17:55.045Z,0.80
2022-10-09T11:20:43.028Z,0.65
2022-10-09T11:23:37.215Z,0.95
2022-10-09T11:26:41.338Z,0.75
2022-10-09T11:29:20.374Z,0.95
2022-10-09T11:31:55.572Z,1.10
2022-10-09T11:34:37.534Z,1.35
2022-10-09T11:37:08.929Z,1.23
2022-10-09T11:39:37.418Z,0.60
2022-10-09T11:42:05.893Z,0.40
2022-10-09T11:45:00.888Z,0.63
2022-10-09T11:47:33.348Z,0.60
2022-10-09T11:50:18.320Z,0.73
2022-10-09T11:53:05.588Z,0.70
2022-10-09T11:55:34.040Z,0.90
2022-10-09T11:58:18.845Z,0.80
2022-10-09T12:00:48.221Z,1.05
2022-10-09T12:03:35.926Z,1.02
2022-10-09T12:06:15.211Z,0.93
2022-10-09T12:08:53.129Z,0.95
2022-10-09T12:11:20.111Z,0.98
2022-10-09T12:13:54.783Z,0.98
2022-10-09T12:16:54.269Z,0.90
2022-10-09T12:19:36.346Z,0.88
2022-10-09T12:22:07.811Z,0.88
2022-10-09T12:24:41.247Z,0.75
2022-10-09T12:27:08.738Z,0.68
2022-10-09T12:29:46.099Z,0.85
2022-10-09T12:32:18.290Z,0.77
2022-10-09T12:34:49.969Z,0.57
2022-10-09T12:37:22.450Z,0.63
2022-10-09T12:39:49.949Z,0.85
2022-10-09T12:42:23.206Z,0.57
2022-10-09T12:44:55.035Z,0.70
2022-10-09T12:47:27.472Z,1.23
2022-10-09T12:49:55.462Z,0.90
2022-10-09T12:52:21.839Z,0.52
2022-10-09T12:54:48.256Z,1.33
2022-10-09T12:57:16.425Z,0.50
2022-10-09T12:59:45.854Z,0.40
2022-10-09T13:02:14.111Z,0.40
2022-10-09T13:04:40.684Z,0.80
2022-10-09T13:07:18.391Z,0.55
2022-10-09T13:09:45.024Z,0.65
2022-10-09T13:12:14.329Z,0.80
2022-10-09T13:15:05.201Z,1.13
2022-10-09T13:17:34.198Z,0.52
2022-10-09T13:20:12.800Z,0.85
2022-10-09T13:22:39.820Z,0.60
2022-10-09T13:25:06.979Z,0.50
2022-10-09T13:27:37.400Z,0.70
2022-10-09T13:30:05.348Z,0.80
2022-10-09T13:32:31.753Z,0.52
2022-10-09T13:34:58.319Z,0.50
2022-10-09T13:37:26.607Z,0.50
2022-10-09T13:39:54.770Z,0.70
2022-10-09T13:42:23.228Z,0.50
2022-10-09T13:44:49.564Z,0.60
2022-10-09T13:47:19.633Z,1.10
2022-10-09T13:49:50.169Z,0.50
2022-10-09T13:52:16.662Z,1.30
2022-10-09T13:54:43.076Z,0.68
2022-10-09T13:57:09.765Z,0.45
2022-10-09T13:59:36.364Z,0.30
2022-10-09T14:02:03.286Z,0.80
2022-10-09T14:04:30.051Z,0.65
2022-10-09T14:06:56.419Z,0.60
2022-10-09T14:09:23.297Z,0.82
2022-10-09T14:11:49.638Z,0.32
2022-10-09T14:14:16.322Z,0.70
2022-10-09T14:16:42.961Z,0.65
2022-10-09T14:19:09.807Z,0.60
2022-10-09T14:21:36.123Z,1.00
2022-10-09T14:24:03.520Z,1.13
2022-10-09T14:26:30.397Z,0.82
2022-10-09T14:29:00.463Z,0.70
2022-10-09T14:31:27.407Z,1.10
2022-10-09T14:33:57.082Z,0.82
2022-10-09T14:36:23.604Z,0.57
2022-10-09T14:38:50.028Z,0.70
2022-10-09T14:41:17.285Z,0.63
2022-10-09T14:43:45.910Z,0.45
2022-10-09T14:46:17.248Z,0.90
2022-10-09T14:48:45.524Z,0.60
2022-10-09T14:51:14.262Z,0.77
2022-10-09T14:53:41.186Z,0.95
2022-10-09T14:56:11.188Z,0.70
2022-10-09T14:58:38.804Z,0.63
2022-10-09T15:01:06.388Z,0.80
2022-10-09T15:03:34.585Z,0.70
2022-10-09T15:06:05.174Z,0.80
2022-10-09T15:08:33.184Z,0.82
2022-10-09T15:11:00.142Z,0.95
2022-10-09T15:13:26.593Z,0.82
2022-10-09T15:15:58.906Z,0.68
2022-10-09T15:18:26.010Z,0.82
2022-10-09T15:20:52.448Z,0.70
2022-10-09T15:23:19.371Z,0.85
2022-10-09T15:25:53.274Z,0.68
2022-10-09T15:28:20.142Z,0.80
2022-10-09T15:30:51.421Z,0.60
2022-10-09T15:33:18.247Z,0.65
2022-10-09T15:35:45.064Z,0.85
2022-10-09T15:38:15.536Z,1.00
2022-10-09T15:40:45.218Z,1.00
2022-10-09T15:43:17.228Z,0.85
2022-10-09T15:45:43.885Z,0.95
2022-10-09T15:48:18.544Z,0.80
2022-10-09T15:50:45.914Z,0.70
2022-10-09T15:53:13.631Z,0.57
2022-10-09T15:55:41.003Z,0.90
2022-10-09T15:58:07.396Z,0.50
2022-10-09T16:00:38.948Z,0.60
2022-10-09T16:03:06.280Z,0.77
2022-10-09T16:05:43.834Z,0.70
2022-10-09T16:08:11.446Z,0.70
2022-10-09T16:10:48.795Z,0.88
2022-10-09T16:13:16.174Z,1.08
2022-10-09T16:15:44.115Z,1.08
2022-10-09T16:18:10.876Z,0.80
2022-10-09T16:20:38.244Z,0.90
2022-10-09T16:23:05.496Z,1.08
2022-10-09T16:25:32.303Z,1.85
2022-10-09T16:27:58.759Z,1.83
2022-10-09T16:30:25.792Z,1.77
2022-10-09T16:32:52.825Z,1.65
2022-10-09T16:35:19.663Z,2.55
2022-10-09T16:37:46.083Z,2.58
2022-10-09T16:40:12.929Z,5.38
2022-10-09T16:42:39.534Z,12.65
2022-10-09T16:45:06.953Z,21.48
2022-10-09T16:47:33.266Z,25.15
2022-10-09T16:49:59.968Z,23.58
2022-10-09T16:52:26.360Z,23.10
2022-10-09T16:54:55.879Z,20.40
2022-10-09T16:57:23.410Z,15.50
2022-10-09T16:59:49.897Z,10.93
2022-10-09T17:02:16.743Z,9.80
2022-10-09T17:04:43.095Z,11.07
2022-10-09T17:07:10.962Z,9.10
2022-10-09T17:09:37.988Z,6.75
2022-10-09T17:12:05.206Z,5.90
2022-10-09T17:14:31.562Z,4.85
2022-10-09T17:16:57.890Z,5.05
2022-10-09T17:19:24.932Z,5.22
2022-10-09T17:21:51.284Z,4.47
2022-10-09T17:24:18.142Z,4.47
2022-10-09T17:26:44.517Z,5.55
2022-10-09T17:29:12.963Z,4.38
2022-10-09T17:31:39.881Z,3.67
2022-10-09T17:34:06.250Z,2.80
2022-10-09T17:36:38.517Z,3.00
2022-10-09T17:39:07.696Z,4.13
2022-10-09T17:41:34.398Z,3.13
2022-10-09T17:44:01.261Z,3.13
2022-10-09T17:46:29.224Z,3.05
2022-10-09T17:48:55.845Z,3.20
2022-10-09T17:51:25.859Z,2.17
2022-10-09T17:53:53.480Z,2.97
2022-10-09T17:56:19.934Z,2.33
2022-10-09T17:58:46.248Z,2.35
2022-10-09T18:01:13.808Z,2.45
2022-10-09T18:03:41.320Z,2.17
2022-10-09T18:06:11.296Z,2.45
2022-10-09T18:08:38.088Z,3.58
2022-10-09T18:11:07.867Z,3.55
2022-10-09T18:13:37.822Z,3.47
2022-10-09T18:16:06.642Z,3.42
2022-10-09T18:18:33.299Z,3.85
2022-10-09T18:21:08.787Z,3.17
2022-10-09T18:26:06.118Z,3.17
2022-10-09T18:28:32.479Z,3.58
2022-10-09T18:30:59.122Z,3.58
2022-10-09T18:33:25.572Z,3.88
2022-10-09T18:35:51.881Z,3.30
2022-10-09T18:38:18.284Z,4.07
2022-10-09T18:40:45.790Z,3.65
2022-10-09T18:43:12.440Z,3.92
2022-10-09T18:45:43.771Z,3.38
2022-10-09T18:48:10.173Z,3.40
2022-10-09T18:50:37.633Z,5.10
2022-10-09T18:53:04.472Z,4.00
2022-10-09T18:55:31.337Z,4.07
2022-10-09T18:57:58.399Z,3.95
2022-10-09T19:00:25.479Z,4.32
2022-10-09T19:02:51.763Z,4.65
2022-10-09T19:05:18.352Z,4.47
2022-10-09T19:07:44.758Z,4.82
2022-10-09T19:10:11.152Z,5.22
2022-10-09T19:12:37.456Z,9.00
2022-10-09T19:15:06.168Z,7.10
2022-10-09T19:17:36.006Z,8.15
2022-10-09T19:20:02.351Z,7.60
2022-10-09T19:22:29.028Z,10.15
2022-10-09T19:24:55.402Z,8.93
2022-10-09T19:27:26.354Z,12.77
2022-10-09T19:29:53.094Z,13.05
2022-10-09T19:32:23.596Z,13.27
2022-10-09T19:34:50.389Z,10.25
2022-10-09T19:37:16.807Z,10.63
2022-10-09T19:39:43.132Z,10.27
2022-10-09T19:42:09.546Z,9.93
2022-10-09T19:44:35.883Z,9.98
2022-10-09T19:47:02.195Z,9.50
2022-10-09T19:49:28.622Z,9.02
2022-10-09T19:51:55.571Z,8.73
2022-10-09T19:54:21.867Z,8.40
2022-10-09T19:56:48.179Z,8.48
2022-10-09T19:59:14.593Z,11.68
2022-10-09T20:01:41.021Z,8.77
2022-10-09T20:04:09.942Z,8.95
2022-10-09T20:06:38.548Z,39.88
2022-10-09T20:09:06.545Z,14.73
2022-10-09T20:11:33.201Z,20.20
2022-10-09T20:13:59.746Z,31.65
2022-10-09T20:16:26.621Z,18.95
2022-10-09T20:18:54.766Z,8.50
2022-10-09T20:21:21.511Z,7.10
2022-10-09T20:23:47.871Z,16.75
2022-10-09T20:26:20.686Z,16.35
2022-10-09T20:28:48.098Z,9.07
2022-10-09T20:31:17.904Z,9.40
2022-10-09T20:33:45.976Z,9.27
2022-10-09T20:36:20.293Z,6.75
2022-10-09T20:38:47.236Z,6.45
2022-10-09T20:41:15.344Z,4.93
2022-10-09T20:43:42.224Z,5.97
2022-10-09T20:46:10.595Z,4.85
2022-10-09T20:48:37.084Z,4.55
2022-10-09T20:51:03.891Z,4.55
2022-10-09T20:53:30.694Z,3.50
2022-10-09T20:56:02.095Z,3.60
2022-10-09T20:58:29.133Z,3.65
2022-10-09T21:00:55.637Z,3.17
2022-10-09T21:03:22.396Z,3.55
2022-10-09T21:05:49.226Z,3.53
2022-10-09T21:08:15.675Z,2.80
2022-10-09T21:10:46.599Z,3.00
2022-10-09T21:13:13.612Z,3.38
2022-10-09T21:15:45.093Z,3.03
2022-10-09T21:18:12.431Z,2.70
2022-10-09T21:20:40.630Z,3.25
2022-10-09T21:23:07.742Z,3.10
2022-10-09T21:25:34.516Z,2.80
2022-10-09T21:28:01.426Z,3.17
2022-10-09T21:30:28.591Z,3.35
2022-10-09T21:32:55.937Z,3.42
2022-10-09T21:35:23.548Z,3.20
2022-10-09T21:37:50.645Z,3.65
2022-10-09T21:40:17.885Z,3.17
2022-10-09T21:42:44.450Z,3.55
2022-10-09T21:45:10.984Z,3.65
2022-10-09T21:47:37.300Z,3.13
2022-10-09T21:50:04.008Z,3.35
2022-10-09T21:52:30.366Z,3.33
2022-10-09T21:54:56.742Z,3.20
2022-10-09T21:57:23.031Z,2.78
2022-10-09T21:59:49.432Z,3.22
2022-10-09T22:02:15.750Z,3.10
2022-10-09T22:04:42.159Z,3.13
2022-10-09T22:07:08.581Z,3.10
2022-10-09T22:09:34.985Z,3.05
2022-10-09T22:12:01.272Z,3.35
2022-10-09T22:14:27.579Z,3.42
2022-10-09T22:16:53.972Z,3.22
2022-10-09T22:19:20.416Z,3.22
2022-10-09T22:21:48.273Z,3.50
2022-10-09T22:24:14.599Z,3.35
2022-10-09T22:26:41.104Z,3.60
2022-10-09T22:29:07.768Z,2.80
2022-10-09T22:31:34.158Z,4.07
2022-10-09T22:34:02.279Z,2.92
2022-10-09T22:36:31.818Z,2.47
2022-10-09T22:39:00.340Z,3.20
2022-10-09T22:41:28.116Z,2.90
2022-10-09T22:43:57.186Z,3.42
2022-10-09T22:46:32.535Z,3.13
2022-10-09T22:48:59.399Z,3.53
2022-10-09T22:51:27.656Z,3.17
2022-10-09T22:53:55.624Z,3.05
2022-10-09T22:56:24.700Z,2.60
2022-10-09T22:58:53.078Z,3.53
2022-10-09T23:01:29.933Z,2.95
2022-10-09T23:04:01.959Z,3.17
2022-10-09T23:06:28.657Z,3.03
2022-10-09T23:08:55.665Z,2.75
2022-10-09T23:11:23.218Z,3.40
2022-10-09T23:13:54.792Z,3.30
2022-10-09T23:16:21.939Z,3.13
2022-10-09T23:18:48.539Z,2.78
2022-10-09T23:21:18.133Z,3.08
2022-10-09T23:23:45.919Z,2.20
2022-10-09T23:26:27.523Z,2.90
2022-10-09T23:28:59.645Z,2.78
2022-10-09T23:31:26.873Z,2.28
2022-10-09T23:33:54.136Z,2.80
2022-10-09T23:36:23.011Z,2.95
2022-10-09T23:38:49.864Z,2.55
2022-10-09T23:41:23.495Z,2.05
2022-10-09T23:43:50.786Z,3.13
2022-10-09T23:46:20.479Z,2.95
2022-10-09T23:48:48.106Z,2.47
2022-10-09T23:51:15.193Z,2.75
2022-10-09T23:53:42.510Z,2.67
2022-10-09T23:56:14.707Z,2.45
2022-10-09T23:58:41.016Z,2.92
